sensor_id;sensor_type;location;lat;lon;timestamp;P1;durP1;ratioP1;P2;durP2;ratioP2
67986;SDS011;54767;53.800;15.956;2023-05-16T00:01:13;4.60;;;3.40;;
67986;SDS011;54767;53.800;15.956;2023-05-16T00:03:43;4.00;;;3.50;;
67986;SDS011;54767;53.800;15.956;2023-05-16T00:06:12;3.90;;;3.50;;
67986;SDS011;54767;53.800;15.956;2023-05-16T00:08:40;3.90;;;3.30;;
67986;SDS011;54767;53.800;15.956;2023-05-16T00:11:12;3.70;;;3.40;;
67986;SDS011;54767;53.800;15.956;2023-05-16T00:13:40;5.90;;;3.30;;
67986;SDS011;54767;53.800;15.956;2023-05-16T00:16:09;6.30;;;4.10;;
67986;SDS011;54767;53.800;15.956;2023-05-16T00:18:38;3.70;;;3.40;;
67986;SDS011;54767;53.800;15.956;2023-05-16T00:21:07;4.20;;;3.40;;
67986;SDS011;54767;53.800;15.956;2023-05-16T00:23:35;3.60;;;3.30;;
67986;SDS011;54767;53.800;15.956;2023-05-16T00:26:03;3.90;;;3.20;;
67986;SDS011;54767;53.800;15.956;2023-05-16T00:28:31;3.50;;;3.10;;
67986;SDS011;54767;53.800;15.956;2023-05-16T00:31:00;3.40;;;3.20;;
67986;SDS011;54767;53.800;15.956;2023-05-16T00:33:28;4.70;;;3.00;;
67986;SDS011;54767;53.800;15.956;2023-05-16T00:35:57;3.50;;;3.20;;
67986;SDS011;54767;53.800;15.956;2023-05-16T00:38:25;3.30;;;3.00;;
67986;SDS011;54767;53.800;15.956;2023-05-16T00:40:53;3.80;;;3.10;;
67986;SDS011;54767;53.800;15.956;2023-05-16T00:43:21;5.90;;;3.30;;
67986;SDS011;54767;53.800;15.956;2023-05-16T00:45:50;4.20;;;3.80;;
67986;SDS011;54767;53.800;15.956;2023-05-16T00:48:18;5.30;;;4.30;;
67986;SDS011;54767;53.800;15.956;2023-05-16T00:50:46;6.00;;;4.80;;
67986;SDS011;54767;53.800;15.956;2023-05-16T00:53:16;5.80;;;4.70;;
67986;SDS011;54767;53.800;15.956;2023-05-16T00:55:45;7.50;;;5.10;;
67986;SDS011;54767;53.800;15.956;2023-05-16T00:58:15;9.10;;;6.30;;
67986;SDS011;54767;53.800;15.956;2023-05-16T01:00:43;7.70;;;5.60;;
67986;SDS011;54767;53.800;15.956;2023-05-16T01:03:15;9.20;;;6.60;;
67986;SDS011;54767;53.800;15.956;2023-05-16T01:05:44;8.60;;;6.80;;
67986;SDS011;54767;53.800;15.956;2023-05-16T01:08:13;7.10;;;6.40;;
67986;SDS011;54767;53.800;15.956;2023-05-16T01:10:49;8.90;;;6.60;;
67986;SDS011;54767;53.800;15.956;2023-05-16T01:13:29;9.40;;;7.10;;
67986;SDS011;54767;53.800;15.956;2023-05-16T01:16:06;9.60;;;7.00;;
67986;SDS011;54767;53.800;15.956;2023-05-16T01:18:41;9.20;;;7.30;;
67986;SDS011;54767;53.800;15.956;2023-05-16T01:21:37;11.30;;;7.40;;
67986;SDS011;54767;53.800;15.956;2023-05-16T01:26:51;11.60;;;7.20;;
67986;SDS011;54767;53.800;15.956;2023-05-16T01:29:21;8.20;;;6.80;;
67986;SDS011;54767;53.800;15.956;2023-05-16T01:31:49;9.70;;;7.60;;
67986;SDS011;54767;53.800;15.956;2023-05-16T01:34:18;10.40;;;7.80;;
67986;SDS011;54767;53.800;15.956;2023-05-16T01:42:19;11.00;;;8.00;;
67986;SDS011;54767;53.800;15.956;2023-05-16T01:47:44;13.10;;;8.70;;
67986;SDS011;54767;53.800;15.956;2023-05-16T01:50:17;9.80;;;7.50;;
67986;SDS011;54767;53.800;15.956;2023-05-16T01:53:02;11.30;;;7.60;;
67986;SDS011;54767;53.800;15.956;2023-05-16T01:55:43;12.40;;;8.70;;
67986;SDS011;54767;53.800;15.956;2023-05-16T01:58:14;10.80;;;8.10;;
67986;SDS011;54767;53.800;15.956;2023-05-16T02:00:44;13.00;;;9.50;;
67986;SDS011;54767;53.800;15.956;2023-05-16T02:03:12;13.10;;;9.00;;
67986;SDS011;54767;53.800;15.956;2023-05-16T02:05:41;12.80;;;8.70;;
67986;SDS011;54767;53.800;15.956;2023-05-16T02:08:10;12.70;;;9.40;;
67986;SDS011;54767;53.800;15.956;2023-05-16T02:10:38;13.50;;;9.10;;
67986;SDS011;54767;53.800;15.956;2023-05-16T02:13:08;13.10;;;8.90;;
67986;SDS011;54767;53.800;15.956;2023-05-16T02:15:36;11.80;;;8.60;;
67986;SDS011;54767;53.800;15.956;2023-05-16T02:18:04;11.50;;;8.20;;
67986;SDS011;54767;53.800;15.956;2023-05-16T02:20:33;14.90;;;8.70;;
67986;SDS011;54767;53.800;15.956;2023-05-16T02:23:01;16.10;;;9.40;;
67986;SDS011;54767;53.800;15.956;2023-05-16T02:25:30;10.10;;;7.90;;
67986;SDS011;54767;53.800;15.956;2023-05-16T02:27:58;11.80;;;8.80;;
67986;SDS011;54767;53.800;15.956;2023-05-16T02:30:27;10.60;;;7.80;;
67986;SDS011;54767;53.800;15.956;2023-05-16T02:32:55;11.00;;;8.60;;
67986;SDS011;54767;53.800;15.956;2023-05-16T02:35:23;11.20;;;8.00;;
67986;SDS011;54767;53.800;15.956;2023-05-16T02:37:53;12.10;;;8.70;;
67986;SDS011;54767;53.800;15.956;2023-05-16T02:40:22;10.80;;;8.10;;
67986;SDS011;54767;53.800;15.956;2023-05-16T02:42:50;11.30;;;7.90;;
67986;SDS011;54767;53.800;15.956;2023-05-16T02:45:18;10.90;;;8.20;;
67986;SDS011;54767;53.800;15.956;2023-05-16T02:47:47;12.40;;;8.30;;
67986;SDS011;54767;53.800;15.956;2023-05-16T02:50:15;11.70;;;8.80;;
67986;SDS011;54767;53.800;15.956;2023-05-16T02:52:44;10.60;;;8.60;;
67986;SDS011;54767;53.800;15.956;2023-05-16T02:55:12;10.90;;;8.30;;
67986;SDS011;54767;53.800;15.956;2023-05-16T02:58:00;14.80;;;9.00;;
67986;SDS011;54767;53.800;15.956;2023-05-16T03:00:29;13.10;;;9.00;;
67986;SDS011;54767;53.800;15.956;2023-05-16T03:02:57;12.10;;;8.10;;
67986;SDS011;54767;53.800;15.956;2023-05-16T03:05:25;11.60;;;8.80;;
67986;SDS011;54767;53.800;15.956;2023-05-16T03:07:54;12.50;;;9.40;;
67986;SDS011;54767;53.800;15.956;2023-05-16T03:10:22;11.30;;;8.50;;
67986;SDS011;54767;53.800;15.956;2023-05-16T03:12:51;10.90;;;8.40;;
67986;SDS011;54767;53.800;15.956;2023-05-16T03:15:19;13.50;;;9.40;;
67986;SDS011;54767;53.800;15.956;2023-05-16T03:17:47;11.30;;;8.30;;
67986;SDS011;54767;53.800;15.956;2023-05-16T03:20:16;10.60;;;8.20;;
67986;SDS011;54767;53.800;15.956;2023-05-16T03:22:44;11.20;;;7.90;;
67986;SDS011;54767;53.800;15.956;2023-05-16T03:25:13;10.50;;;7.90;;
67986;SDS011;54767;53.800;15.956;2023-05-16T03:27:41;11.50;;;8.70;;
67986;SDS011;54767;53.800;15.956;2023-05-16T03:30:09;10.60;;;8.20;;
67986;SDS011;54767;53.800;15.956;2023-05-16T03:32:39;10.20;;;7.40;;
67986;SDS011;54767;53.800;15.956;2023-05-16T03:35:07;8.80;;;7.50;;
67986;SDS011;54767;53.800;15.956;2023-05-16T03:37:37;9.70;;;8.10;;
67986;SDS011;54767;53.800;15.956;2023-05-16T03:40:06;9.50;;;7.50;;
67986;SDS011;54767;53.800;15.956;2023-05-16T03:42:35;10.90;;;7.30;;
67986;SDS011;54767;53.800;15.956;2023-05-16T03:45:04;10.10;;;8.20;;
67986;SDS011;54767;53.800;15.956;2023-05-16T03:47:33;11.00;;;8.20;;
67986;SDS011;54767;53.800;15.956;2023-05-16T03:50:02;9.80;;;8.10;;
67986;SDS011;54767;53.800;15.956;2023-05-16T03:52:32;12.20;;;8.10;;
67986;SDS011;54767;53.800;15.956;2023-05-16T03:55:01;11.60;;;8.50;;
67986;SDS011;54767;53.800;15.956;2023-05-16T03:57:31;13.50;;;8.70;;
67986;SDS011;54767;53.800;15.956;2023-05-16T04:00:00;13.20;;;9.20;;
67986;SDS011;54767;53.800;15.956;2023-05-16T04:02:28;13.70;;;9.50;;
67986;SDS011;54767;53.800;15.956;2023-05-16T04:04:57;13.30;;;9.00;;
67986;SDS011;54767;53.800;15.956;2023-05-16T04:07:25;12.50;;;9.10;;
67986;SDS011;54767;53.800;15.956;2023-05-16T04:09:54;12.80;;;9.00;;
67986;SDS011;54767;53.800;15.956;2023-05-16T04:12:25;15.40;;;9.80;;
67986;SDS011;54767;53.800;15.956;2023-05-16T04:14:53;13.60;;;9.50;;
67986;SDS011;54767;53.800;15.956;2023-05-16T04:17:22;16.30;;;10.20;;
67986;SDS011;54767;53.800;15.956;2023-05-16T04:19:50;13.20;;;9.40;;
67986;SDS011;54767;53.800;15.956;2023-05-16T04:22:20;14.50;;;9.80;;
67986;SDS011;54767;53.800;15.956;2023-05-16T04:24:49;12.40;;;9.00;;
67986;SDS011;54767;53.800;15.956;2023-05-16T04:27:18;15.80;;;9.60;;
67986;SDS011;54767;53.800;15.956;2023-05-16T04:29:46;11.60;;;8.90;;
67986;SDS011;54767;53.800;15.956;2023-05-16T04:32:15;12.70;;;9.50;;
67986;SDS011;54767;53.800;15.956;2023-05-16T04:34:44;13.80;;;10.20;;
67986;SDS011;54767;53.800;15.956;2023-05-16T04:37:13;13.80;;;10.30;;
67986;SDS011;54767;53.800;15.956;2023-05-16T04:39:42;14.60;;;9.90;;
67986;SDS011;54767;53.800;15.956;2023-05-16T04:42:10;14.20;;;10.10;;
67986;SDS011;54767;53.800;15.956;2023-05-16T04:44:39;13.30;;;9.80;;
67986;SDS011;54767;53.800;15.956;2023-05-16T04:47:07;13.90;;;9.80;;
67986;SDS011;54767;53.800;15.956;2023-05-16T04:49:36;13.80;;;9.90;;
67986;SDS011;54767;53.800;15.956;2023-05-16T04:52:05;12.80;;;9.60;;
67986;SDS011;54767;53.800;15.956;2023-05-16T04:54:36;15.20;;;10.00;;
67986;SDS011;54767;53.800;15.956;2023-05-16T04:57:05;12.40;;;9.70;;
67986;SDS011;54767;53.800;15.956;2023-05-16T04:59:34;12.70;;;9.40;;
67986;SDS011;54767;53.800;15.956;2023-05-16T05:02:03;13.30;;;9.20;;
67986;SDS011;54767;53.800;15.956;2023-05-16T05:04:31;13.00;;;9.50;;
67986;SDS011;54767;53.800;15.956;2023-05-16T05:07:00;11.70;;;9.60;;
67986;SDS011;54767;53.800;15.956;2023-05-16T05:09:28;13.20;;;10.20;;
67986;SDS011;54767;53.800;15.956;2023-05-16T05:11:56;13.90;;;10.50;;
67986;SDS011;54767;53.800;15.956;2023-05-16T05:14:25;15.40;;;10.00;;
67986;SDS011;54767;53.800;15.956;2023-05-16T05:16:53;13.50;;;9.90;;
67986;SDS011;54767;53.800;15.956;2023-05-16T05:19:22;12.70;;;9.90;;
67986;SDS011;54767;53.800;15.956;2023-05-16T05:21:50;13.90;;;10.20;;
67986;SDS011;54767;53.800;15.956;2023-05-16T05:24:18;15.10;;;10.30;;
67986;SDS011;54767;53.800;15.956;2023-05-16T05:26:47;15.20;;;10.30;;
67986;SDS011;54767;53.800;15.956;2023-05-16T05:29:15;12.90;;;10.30;;
67986;SDS011;54767;53.800;15.956;2023-05-16T05:31:43;12.80;;;9.80;;
67986;SDS011;54767;53.800;15.956;2023-05-16T05:34:11;13.90;;;10.10;;
67986;SDS011;54767;53.800;15.956;2023-05-16T05:36:40;13.50;;;9.70;;
67986;SDS011;54767;53.800;15.956;2023-05-16T05:39:08;13.30;;;9.70;;
67986;SDS011;54767;53.800;15.956;2023-05-16T05:41:36;11.90;;;8.80;;
67986;SDS011;54767;53.800;15.956;2023-05-16T05:44:05;11.40;;;9.50;;
67986;SDS011;54767;53.800;15.956;2023-05-16T05:46:33;13.20;;;8.90;;
67986;SDS011;54767;53.800;15.956;2023-05-16T05:49:02;14.70;;;8.90;;
67986;SDS011;54767;53.800;15.956;2023-05-16T05:51:31;13.00;;;8.10;;
67986;SDS011;54767;53.800;15.956;2023-05-16T05:54:00;10.50;;;8.30;;
67986;SDS011;54767;53.800;15.956;2023-05-16T05:56:29;12.10;;;8.30;;
67986;SDS011;54767;53.800;15.956;2023-05-16T05:58:57;10.40;;;7.90;;
67986;SDS011;54767;53.800;15.956;2023-05-16T06:01:25;10.10;;;7.90;;
67986;SDS011;54767;53.800;15.956;2023-05-16T06:03:54;9.50;;;7.60;;
67986;SDS011;54767;53.800;15.956;2023-05-16T06:06:22;8.70;;;7.50;;
67986;SDS011;54767;53.800;15.956;2023-05-16T06:08:51;10.70;;;7.80;;
67986;SDS011;54767;53.800;15.956;2023-05-16T06:11:19;12.10;;;8.30;;
67986;SDS011;54767;53.800;15.956;2023-05-16T06:13:48;10.60;;;7.60;;
67986;SDS011;54767;53.800;15.956;2023-05-16T06:16:16;9.60;;;7.60;;
67986;SDS011;54767;53.800;15.956;2023-05-16T06:18:45;9.30;;;7.70;;
67986;SDS011;54767;53.800;15.956;2023-05-16T06:21:13;10.20;;;7.80;;
67986;SDS011;54767;53.800;15.956;2023-05-16T06:23:42;9.80;;;7.50;;
67986;SDS011;54767;53.800;15.956;2023-05-16T06:26:10;10.80;;;7.60;;
67986;SDS011;54767;53.800;15.956;2023-05-16T06:28:38;9.10;;;7.70;;
67986;SDS011;54767;53.800;15.956;2023-05-16T06:31:07;8.80;;;7.80;;
67986;SDS011;54767;53.800;15.956;2023-05-16T06:33:36;10.20;;;7.30;;
67986;SDS011;54767;53.800;15.956;2023-05-16T06:36:05;10.40;;;7.60;;
67986;SDS011;54767;53.800;15.956;2023-05-16T06:38:33;10.90;;;7.60;;
67986;SDS011;54767;53.800;15.956;2023-05-16T06:41:01;8.30;;;6.80;;
67986;SDS011;54767;53.800;15.956;2023-05-16T06:43:30;9.70;;;7.30;;
67986;SDS011;54767;53.800;15.956;2023-05-16T06:45:58;8.60;;;7.20;;
67986;SDS011;54767;53.800;15.956;2023-05-16T06:48:27;8.40;;;7.10;;
67986;SDS011;54767;53.800;15.956;2023-05-16T06:50:55;9.60;;;7.60;;
67986;SDS011;54767;53.800;15.956;2023-05-16T06:53:24;11.10;;;7.70;;
67986;SDS011;54767;53.800;15.956;2023-05-16T06:55:53;9.10;;;7.10;;
67986;SDS011;54767;53.800;15.956;2023-05-16T06:58:21;8.70;;;7.20;;
67986;SDS011;54767;53.800;15.956;2023-05-16T07:00:50;8.60;;;7.00;;
67986;SDS011;54767;53.800;15.956;2023-05-16T07:03:18;10.00;;;7.00;;
67986;SDS011;54767;53.800;15.956;2023-05-16T07:05:47;9.20;;;7.60;;
67986;SDS011;54767;53.800;15.956;2023-05-16T07:08:15;9.00;;;6.80;;
67986;SDS011;54767;53.800;15.956;2023-05-16T07:10:44;7.90;;;7.00;;
67986;SDS011;54767;53.800;15.956;2023-05-16T07:13:12;9.60;;;7.10;;
67986;SDS011;54767;53.800;15.956;2023-05-16T07:15:40;7.80;;;6.50;;
67986;SDS011;54767;53.800;15.956;2023-05-16T07:18:09;8.30;;;6.50;;
67986;SDS011;54767;53.800;15.956;2023-05-16T07:20:37;8.30;;;7.00;;
67986;SDS011;54767;53.800;15.956;2023-05-16T07:23:05;7.80;;;6.70;;
67986;SDS011;54767;53.800;15.956;2023-05-16T07:25:34;8.40;;;6.60;;
67986;SDS011;54767;53.800;15.956;2023-05-16T07:28:03;9.40;;;6.60;;
67986;SDS011;54767;53.800;15.956;2023-05-16T07:30:31;8.40;;;6.80;;
67986;SDS011;54767;53.800;15.956;2023-05-16T07:33:00;7.90;;;6.60;;
67986;SDS011;54767;53.800;15.956;2023-05-16T07:35:28;9.00;;;6.90;;
67986;SDS011;54767;53.800;15.956;2023-05-16T07:37:56;10.20;;;7.10;;
67986;SDS011;54767;53.800;15.956;2023-05-16T07:40:25;7.50;;;6.30;;
67986;SDS011;54767;53.800;15.956;2023-05-16T07:42:56;8.50;;;7.10;;
67986;SDS011;54767;53.800;15.956;2023-05-16T07:45:24;7.60;;;6.70;;
67986;SDS011;54767;53.800;15.956;2023-05-16T07:47:53;8.10;;;7.20;;
67986;SDS011;54767;53.800;15.956;2023-05-16T07:50:22;8.50;;;6.70;;
67986;SDS011;54767;53.800;15.956;2023-05-16T07:52:51;10.40;;;7.10;;
67986;SDS011;54767;53.800;15.956;2023-05-16T07:55:19;10.90;;;7.00;;
67986;SDS011;54767;53.800;15.956;2023-05-16T07:57:49;9.10;;;7.10;;
67986;SDS011;54767;53.800;15.956;2023-05-16T08:00:18;9.50;;;7.50;;
67986;SDS011;54767;53.800;15.956;2023-05-16T08:02:48;10.50;;;7.70;;
67986;SDS011;54767;53.800;15.956;2023-05-16T08:05:16;8.90;;;7.60;;
67986;SDS011;54767;53.800;15.956;2023-05-16T08:07:45;9.70;;;8.10;;
67986;SDS011;54767;53.800;15.956;2023-05-16T08:10:13;12.60;;;9.80;;
67986;SDS011;54767;53.800;15.956;2023-05-16T08:12:42;13.30;;;10.60;;
67986;SDS011;54767;53.800;15.956;2023-05-16T08:15:10;14.30;;;11.60;;
67986;SDS011;54767;53.800;15.956;2023-05-16T08:17:39;18.70;;;12.90;;
67986;SDS011;54767;53.800;15.956;2023-05-16T08:20:07;16.60;;;13.00;;
67986;SDS011;54767;53.800;15.956;2023-05-16T08:22:36;18.50;;;14.70;;
67986;SDS011;54767;53.800;15.956;2023-05-16T08:25:07;18.00;;;13.80;;
67986;SDS011;54767;53.800;15.956;2023-05-16T08:27:36;18.00;;;14.40;;
67986;SDS011;54767;53.800;15.956;2023-05-16T08:30:04;18.40;;;14.50;;
67986;SDS011;54767;53.800;15.956;2023-05-16T08:32:33;19.60;;;15.40;;
67986;SDS011;54767;53.800;15.956;2023-05-16T08:35:02;18.10;;;14.00;;
67986;SDS011;54767;53.800;15.956;2023-05-16T08:37:31;18.00;;;14.10;;
67986;SDS011;54767;53.800;15.956;2023-05-16T08:40:00;18.10;;;14.40;;
67986;SDS011;54767;53.800;15.956;2023-05-16T08:42:29;19.30;;;14.30;;
67986;SDS011;54767;53.800;15.956;2023-05-16T08:44:57;20.10;;;14.00;;
67986;SDS011;54767;53.800;15.956;2023-05-16T08:47:26;23.20;;;15.80;;
67986;SDS011;54767;53.800;15.956;2023-05-16T08:49:59;18.60;;;14.10;;
67986;SDS011;54767;53.800;15.956;2023-05-16T08:52:29;18.40;;;14.30;;
67986;SDS011;54767;53.800;15.956;2023-05-16T08:55:01;19.20;;;14.30;;
67986;SDS011;54767;53.800;15.956;2023-05-16T08:57:39;19.40;;;15.10;;
67986;SDS011;54767;53.800;15.956;2023-05-16T09:02:40;19.60;;;14.50;;
67986;SDS011;54767;53.800;15.956;2023-05-16T09:05:12;21.60;;;15.50;;
67986;SDS011;54767;53.800;15.956;2023-05-16T09:07:42;19.90;;;15.20;;
67986;SDS011;54767;53.800;15.956;2023-05-16T09:10:11;18.20;;;14.60;;
67986;SDS011;54767;53.800;15.956;2023-05-16T09:12:40;18.00;;;14.30;;
67986;SDS011;54767;53.800;15.956;2023-05-16T09:15:09;20.90;;;12.70;;
67986;SDS011;54767;53.800;15.956;2023-05-16T09:17:43;16.70;;;12.50;;
67986;SDS011;54767;53.800;15.956;2023-05-16T09:20:17;15.90;;;12.00;;
67986;SDS011;54767;53.800;15.956;2023-05-16T09:22:51;16.20;;;10.80;;
67986;SDS011;54767;53.800;15.956;2023-05-16T09:25:22;17.20;;;11.70;;
67986;SDS011;54767;53.800;15.956;2023-05-16T09:27:59;19.20;;;12.00;;
67986;SDS011;54767;53.800;15.956;2023-05-16T09:30:33;18.90;;;10.70;;
67986;SDS011;54767;53.800;15.956;2023-05-16T09:33:02;16.70;;;10.50;;
67986;SDS011;54767;53.800;15.956;2023-05-16T09:35:33;15.50;;;10.10;;
67986;SDS011;54767;53.800;15.956;2023-05-16T09:38:13;15.00;;;9.30;;
67986;SDS011;54767;53.800;15.956;2023-05-16T09:40:44;16.90;;;10.60;;
67986;SDS011;54767;53.800;15.956;2023-05-16T09:43:14;14.80;;;9.90;;
67986;SDS011;54767;53.800;15.956;2023-05-16T09:45:45;14.10;;;9.50;;
67986;SDS011;54767;53.800;15.956;2023-05-16T09:48:15;16.70;;;9.60;;
67986;SDS011;54767;53.800;15.956;2023-05-16T09:50:46;16.10;;;10.10;;
67986;SDS011;54767;53.800;15.956;2023-05-16T09:53:25;20.00;;;10.70;;
67986;SDS011;54767;53.800;15.956;2023-05-16T09:56:04;15.90;;;10.20;;
67986;SDS011;54767;53.800;15.956;2023-05-16T09:58:38;15.20;;;9.50;;
67986;SDS011;54767;53.800;15.956;2023-05-16T10:01:08;15.20;;;9.30;;
67986;SDS011;54767;53.800;15.956;2023-05-16T10:06:08;13.80;;;8.40;;
67986;SDS011;54767;53.800;15.956;2023-05-16T10:11:08;14.90;;;8.80;;
67986;SDS011;54767;53.800;15.956;2023-05-16T10:13:38;14.20;;;9.30;;
67986;SDS011;54767;53.800;15.956;2023-05-16T10:16:09;16.50;;;8.80;;
67986;SDS011;54767;53.800;15.956;2023-05-16T10:18:39;14.50;;;9.10;;
67986;SDS011;54767;53.800;15.956;2023-05-16T10:21:12;13.90;;;9.20;;
67986;SDS011;54767;53.800;15.956;2023-05-16T10:23:43;14.90;;;9.50;;
67986;SDS011;54767;53.800;15.956;2023-05-16T10:26:15;18.00;;;10.70;;
67986;SDS011;54767;53.800;15.956;2023-05-16T10:28:44;15.20;;;9.10;;
67986;SDS011;54767;53.800;15.956;2023-05-16T10:31:14;14.70;;;9.30;;
67986;SDS011;54767;53.800;15.956;2023-05-16T10:33:43;15.10;;;9.70;;
67986;SDS011;54767;53.800;15.956;2023-05-16T10:36:12;16.80;;;10.00;;
67986;SDS011;54767;53.800;15.956;2023-05-16T10:38:42;14.10;;;9.20;;
67986;SDS011;54767;53.800;15.956;2023-05-16T10:41:12;14.70;;;8.20;;
67986;SDS011;54767;53.800;15.956;2023-05-16T10:43:43;14.50;;;8.70;;
67986;SDS011;54767;53.800;15.956;2023-05-16T10:46:13;12.40;;;8.90;;
67986;SDS011;54767;53.800;15.956;2023-05-16T10:48:41;15.00;;;9.60;;
67986;SDS011;54767;53.800;15.956;2023-05-16T10:53:51;13.60;;;9.20;;
67986;SDS011;54767;53.800;15.956;2023-05-16T10:56:23;13.20;;;8.80;;
67986;SDS011;54767;53.800;15.956;2023-05-16T10:58:53;14.00;;;9.10;;
67986;SDS011;54767;53.800;15.956;2023-05-16T11:01:25;12.60;;;8.50;;
67986;SDS011;54767;53.800;15.956;2023-05-16T11:06:29;12.30;;;8.30;;
67986;SDS011;54767;53.800;15.956;2023-05-16T11:22:24;13.80;;;9.60;;
67986;SDS011;54767;53.800;15.956;2023-05-16T11:25:06;15.30;;;10.20;;
67986;SDS011;54767;53.800;15.956;2023-05-16T11:27:45;17.40;;;9.90;;
67986;SDS011;54767;53.800;15.956;2023-05-16T11:30:16;17.70;;;10.50;;
67986;SDS011;54767;53.800;15.956;2023-05-16T11:32:46;15.60;;;10.30;;
67986;SDS011;54767;53.800;15.956;2023-05-16T11:35:16;14.20;;;9.70;;
67986;SDS011;54767;53.800;15.956;2023-05-16T11:37:46;16.40;;;10.20;;
67986;SDS011;54767;53.800;15.956;2023-05-16T11:40:14;14.90;;;10.30;;
67986;SDS011;54767;53.800;15.956;2023-05-16T11:42:45;14.20;;;9.10;;
67986;SDS011;54767;53.800;15.956;2023-05-16T11:45:15;13.80;;;9.60;;
67986;SDS011;54767;53.800;15.956;2023-05-16T11:47:46;13.40;;;8.70;;
67986;SDS011;54767;53.800;15.956;2023-05-16T11:50:16;13.60;;;9.10;;
67986;SDS011;54767;53.800;15.956;2023-05-16T11:52:47;15.60;;;9.00;;
67986;SDS011;54767;53.800;15.956;2023-05-16T11:55:26;16.40;;;9.00;;
67986;SDS011;54767;53.800;15.956;2023-05-16T11:58:09;14.60;;;8.00;;
67986;SDS011;54767;53.800;15.956;2023-05-16T12:00:46;14.70;;;7.80;;
67986;SDS011;54767;53.800;15.956;2023-05-16T12:03:16;11.60;;;7.50;;
67986;SDS011;54767;53.800;15.956;2023-05-16T12:05:49;10.90;;;7.60;;
67986;SDS011;54767;53.800;15.956;2023-05-16T12:08:20;14.30;;;7.90;;
67986;SDS011;54767;53.800;15.956;2023-05-16T12:10:50;13.10;;;7.60;;
67986;SDS011;54767;53.800;15.956;2023-05-16T12:13:20;13.90;;;7.50;;
67986;SDS011;54767;53.800;15.956;2023-05-16T12:15:50;12.30;;;7.30;;
67986;SDS011;54767;53.800;15.956;2023-05-16T12:18:20;12.90;;;6.80;;
67986;SDS011;54767;53.800;15.956;2023-05-16T12:20:49;11.80;;;6.80;;
67986;SDS011;54767;53.800;15.956;2023-05-16T12:23:19;13.70;;;6.70;;
67986;SDS011;54767;53.800;15.956;2023-05-16T12:25:47;11.40;;;6.60;;
67986;SDS011;54767;53.800;15.956;2023-05-16T12:28:16;11.70;;;6.40;;
67986;SDS011;54767;53.800;15.956;2023-05-16T12:30:44;13.60;;;6.70;;
67986;SDS011;54767;53.800;15.956;2023-05-16T12:33:15;13.60;;;6.50;;
67986;SDS011;54767;53.800;15.956;2023-05-16T12:35:45;13.60;;;6.50;;
67986;SDS011;54767;53.800;15.956;2023-05-16T12:38:14;12.60;;;6.10;;
67986;SDS011;54767;53.800;15.956;2023-05-16T12:40:44;10.50;;;6.10;;
67986;SDS011;54767;53.800;15.956;2023-05-16T12:43:14;10.40;;;5.80;;
67986;SDS011;54767;53.800;15.956;2023-05-16T12:45:48;11.00;;;6.00;;
67986;SDS011;54767;53.800;15.956;2023-05-16T12:48:18;9.00;;;5.20;;
67986;SDS011;54767;53.800;15.956;2023-05-16T12:50:49;10.60;;;5.30;;
67986;SDS011;54767;53.800;15.956;2023-05-16T12:53:17;12.70;;;5.50;;
67986;SDS011;54767;53.800;15.956;2023-05-16T12:55:46;10.50;;;5.50;;
67986;SDS011;54767;53.800;15.956;2023-05-16T12:58:14;8.30;;;5.00;;
67986;SDS011;54767;53.800;15.956;2023-05-16T13:00:44;6.70;;;5.30;;
67986;SDS011;54767;53.800;15.956;2023-05-16T13:03:12;10.40;;;5.40;;
67986;SDS011;54767;53.800;15.956;2023-05-16T13:05:41;7.90;;;4.60;;
67986;SDS011;54767;53.800;15.956;2023-05-16T13:08:09;10.20;;;4.90;;
67986;SDS011;54767;53.800;15.956;2023-05-16T13:10:38;9.90;;;4.80;;
67986;SDS011;54767;53.800;15.956;2023-05-16T13:13:06;9.00;;;4.50;;
67986;SDS011;54767;53.800;15.956;2023-05-16T13:15:34;12.20;;;4.90;;
67986;SDS011;54767;53.800;15.956;2023-05-16T13:18:03;8.30;;;4.30;;
67986;SDS011;54767;53.800;15.956;2023-05-16T13:20:32;9.40;;;4.20;;
67986;SDS011;54767;53.800;15.956;2023-05-16T13:23:00;11.10;;;3.70;;
67986;SDS011;54767;53.800;15.956;2023-05-16T13:25:29;7.50;;;4.20;;
67986;SDS011;54767;53.800;15.956;2023-05-16T13:27:58;9.30;;;4.50;;
67986;SDS011;54767;53.800;15.956;2023-05-16T13:30:27;10.30;;;4.20;;
67986;SDS011;54767;53.800;15.956;2023-05-16T13:32:55;7.90;;;3.90;;
67986;SDS011;54767;53.800;15.956;2023-05-16T13:35:24;9.40;;;3.70;;
67986;SDS011;54767;53.800;15.956;2023-05-16T13:37:54;8.30;;;3.40;;
67986;SDS011;54767;53.800;15.956;2023-05-16T13:40:22;9.00;;;3.90;;
67986;SDS011;54767;53.800;15.956;2023-05-16T13:42:51;7.50;;;3.60;;
67986;SDS011;54767;53.800;15.956;2023-05-16T13:45:19;7.50;;;3.80;;
67986;SDS011;54767;53.800;15.956;2023-05-16T13:47:48;5.80;;;3.10;;
67986;SDS011;54767;53.800;15.956;2023-05-16T13:50:16;10.10;;;3.30;;
67986;SDS011;54767;53.800;15.956;2023-05-16T13:52:45;8.30;;;3.10;;
67986;SDS011;54767;53.800;15.956;2023-05-16T13:55:14;9.50;;;3.40;;
67986;SDS011;54767;53.800;15.956;2023-05-16T13:57:43;3.90;;;2.90;;
67986;SDS011;54767;53.800;15.956;2023-05-16T14:00:11;6.20;;;3.30;;
67986;SDS011;54767;53.800;15.956;2023-05-16T14:02:43;7.00;;;3.00;;
67986;SDS011;54767;53.800;15.956;2023-05-16T14:05:11;6.60;;;2.80;;
67986;SDS011;54767;53.800;15.956;2023-05-16T14:07:40;8.50;;;2.70;;
67986;SDS011;54767;53.800;15.956;2023-05-16T14:10:11;7.60;;;3.20;;
67986;SDS011;54767;53.800;15.956;2023-05-16T14:12:40;11.30;;;3.50;;
67986;SDS011;54767;53.800;15.956;2023-05-16T14:15:09;10.60;;;2.90;;
67986;SDS011;54767;53.800;15.956;2023-05-16T14:17:37;7.40;;;2.90;;
67986;SDS011;54767;53.800;15.956;2023-05-16T14:20:06;9.30;;;2.90;;
67986;SDS011;54767;53.800;15.956;2023-05-16T14:22:38;4.60;;;2.40;;
67986;SDS011;54767;53.800;15.956;2023-05-16T14:25:06;12.00;;;2.90;;
67986;SDS011;54767;53.800;15.956;2023-05-16T14:27:35;8.10;;;3.00;;
67986;SDS011;54767;53.800;15.956;2023-05-16T14:30:04;5.40;;;2.90;;
67986;SDS011;54767;53.800;15.956;2023-05-16T14:32:33;6.80;;;3.10;;
67986;SDS011;54767;53.800;15.956;2023-05-16T14:35:02;6.70;;;2.70;;
67986;SDS011;54767;53.800;15.956;2023-05-16T14:37:32;6.60;;;3.00;;
67986;SDS011;54767;53.800;15.956;2023-05-16T14:40:00;6.20;;;2.50;;
67986;SDS011;54767;53.800;15.956;2023-05-16T14:42:29;10.90;;;3.20;;
67986;SDS011;54767;53.800;15.956;2023-05-16T14:44:58;6.30;;;2.60;;
67986;SDS011;54767;53.800;15.956;2023-05-16T14:47:26;9.10;;;2.60;;
67986;SDS011;54767;53.800;15.956;2023-05-16T14:49:58;8.80;;;2.70;;
67986;SDS011;54767;53.800;15.956;2023-05-16T14:52:28;6.20;;;2.70;;
67986;SDS011;54767;53.800;15.956;2023-05-16T14:54:56;7.10;;;2.80;;
67986;SDS011;54767;53.800;15.956;2023-05-16T14:57:26;12.20;;;3.20;;
67986;SDS011;54767;53.800;15.956;2023-05-16T14:59:55;5.90;;;2.60;;
67986;SDS011;54767;53.800;15.956;2023-05-16T15:02:23;6.10;;;2.70;;
67986;SDS011;54767;53.800;15.956;2023-05-16T15:04:53;7.90;;;2.60;;
67986;SDS011;54767;53.800;15.956;2023-05-16T15:07:28;7.50;;;2.70;;
67986;SDS011;54767;53.800;15.956;2023-05-16T15:09:56;7.30;;;2.40;;
67986;SDS011;54767;53.800;15.956;2023-05-16T15:12:24;8.70;;;3.10;;
67986;SDS011;54767;53.800;15.956;2023-05-16T15:14:53;8.70;;;2.60;;